Time;durP1;ratioP1;P1;durP2;ratioP2;P2;SDS_P1;SDS_P2;PMS_P1;PMS_P2;Temp;Humidity;BMP_temperature;BMP_pressure;BME280_temperature;BME280_humidity;BME280_pressure;Samples;Min_cycle;Max_cycle;Signal;HPM_P1;HPM_P2
2021/05/31 00:01:00;;;;;;;30.73;22.97;;;;;;;11.75;100.00;102483.69;1811225;79;26288;-65
2021/05/31 00:03:30;;;;;;;29.67;21.83;;;;;;;11.73;100.00;102483.09;1811161;79;26757;-71
2021/05/31 00:06:01;;;;;;;32.97;22.07;;;;;;;11.65;100.00;102475.67;1811159;79;26305;-70
2021/05/31 00:08:30;;;;;;;31.17;22.07;;;;;;;11.65;100.00;102478.45;1811131;78;26781;-70
2021/05/31 00:11:00;;;;;;;31.07;22.73;;;;;;;11.64;100.00;102473.44;1811157;79;26283;-66
2021/05/31 00:13:31;;;;;;;31.53;22.63;;;;;;;11.57;100.00;102471.38;1811128;79;26341;-71
2021/05/31 00:16:00;;;;;;;34.97;24.00;;;;;;;11.50;100.00;102470.71;1811242;79;26746;-65
2021/05/31 00:18:30;;;;;;;35.57;25.17;;;;;;;11.56;100.00;102468.29;1811129;78;26278;-70
2021/05/31 00:21:01;;;;;;;33.87;23.47;;;;;;;11.54;100.00;102463.55;1811190;79;26317;-71
2021/05/31 00:23:31;;;;;;;33.40;23.60;;;;;;;11.41;100.00;102459.15;1811147;79;26276;-71
2021/05/31 00:26:01;;;;;;;35.63;24.77;;;;;;;11.41;100.00;102461.08;1811091;79;26343;-65
2021/05/31 00:28:31;;;;;;;39.23;25.93;;;;;;;11.37;100.00;102462.69;1811181;79;26219;-70
2021/05/31 00:31:01;;;;;;;34.93;23.53;;;;;;;11.23;100.00;102451.57;1811208;79;26741;-66
2021/05/31 00:33:31;;;;;;;30.73;23.40;;;;;;;11.25;100.00;102448.00;1811161;79;26224;-71
2021/05/31 00:36:00;;;;;;;34.03;22.60;;;;;;;11.36;100.00;102439.58;1811169;79;26365;-67
2021/05/31 00:38:30;;;;;;;33.03;23.60;;;;;;;11.42;100.00;102444.11;1811224;79;26341;-70
2021/05/31 00:41:03;;;;;;;31.23;22.90;;;;;;;11.27;100.00;102445.80;1811109;79;26412;-65
2021/05/31 00:43:34;;;;;;;31.63;24.17;;;;;;;11.11;100.00;102434.11;1811070;79;26231;-65
2021/05/31 00:46:05;;;;;;;35.10;23.63;;;;;;;11.06;100.00;102433.47;1811196;79;26768;-65
2021/05/31 00:48:36;;;;;;;38.77;25.40;;;;;;;10.95;100.00;102430.21;1811162;79;26262;-70
2021/05/31 00:51:09;;;;;;;35.60;24.60;;;;;;;10.97;100.00;102426.62;1811254;79;26322;-65
2021/05/31 00:53:40;;;;;;;33.93;23.90;;;;;;;10.86;100.00;102424.75;1811252;79;26773;-71
2021/05/31 00:56:10;;;;;;;33.50;24.47;;;;;;;10.66;100.00;102429.34;1811430;79;26242;-71
2021/05/31 00:58:41;;;;;;;35.53;23.87;;;;;;;10.68;100.00;102425.79;1811337;79;26669;-71
2021/05/31 01:01:11;;;;;;;37.07;25.00;;;;;;;10.66;100.00;102425.72;1790681;79;26301;-71
2021/05/31 01:03:41;;;;;;;36.50;25.40;;;;;;;10.68;100.00;102425.79;1810863;79;26654;-71
2021/05/31 01:06:13;;;;;;;34.83;24.57;;;;;;;10.74;100.00;102430.34;1809261;79;26262;-65
2021/05/31 01:08:48;;;;;;;34.83;24.97;;;;;;;10.66;100.00;102423.79;1809223;79;26310;-71
2021/05/31 01:11:22;;;;;;;35.30;25.80;;;;;;;10.85;100.00;102421.67;1809713;79;26252;-71
2021/05/31 01:13:55;;;;;;;33.63;25.20;;;;;;;10.76;100.00;102420.37;1810482;79;26313;-71
2021/05/31 01:16:28;;;;;;;37.83;25.83;;;;;;;10.79;100.00;102410.14;1811427;79;26679;-71
2021/05/31 01:19:00;;;;;;;31.10;23.73;;;;;;;10.77;100.00;102413.19;1811265;78;26266;-65
2021/05/31 01:21:35;;;;;;;35.33;24.90;;;;;;;10.73;100.00;102414.78;1811322;79;26747;-65
2021/05/31 01:24:09;;;;;;;38.37;25.23;;;;;;;10.57;100.00;102415.54;1811392;79;26215;-66
2021/05/31 01:26:46;;;;;;;37.00;25.47;;;;;;;10.60;100.00;102408.67;1751332;81;26325;-65
2021/05/31 01:29:17;;;;;;;34.13;24.67;;;;;;;10.63;100.00;102403.99;1806723;79;26759;-71
2021/05/31 01:31:51;;;;;;;34.40;25.17;;;;;;;10.60;100.00;102406.73;1811255;79;26251;-65
2021/05/31 01:34:24;;;;;;;36.40;25.23;;;;;;;10.59;100.00;102415.30;1811225;79;26634;-71
2021/05/31 01:36:57;;;;;;;36.23;25.80;;;;;;;10.56;100.00;102415.81;1811312;79;26384;-66
2021/05/31 01:39:30;;;;;;;41.07;25.73;;;;;;;10.59;100.00;102407.81;1811168;79;26305;-70
2021/05/31 01:42:01;;;;;;;36.40;25.07;;;;;;;10.52;100.00;102412.69;1811240;79;26287;-65
2021/05/31 01:44:31;;;;;;;35.20;25.20;;;;;;;10.56;100.00;102410.25;1811316;79;26254;-65
2021/05/31 01:47:02;;;;;;;38.07;25.63;;;;;;;10.49;100.00;102414.55;1811254;79;26338;-65
2021/05/31 01:49:34;;;;;;;41.60;27.20;;;;;;;10.56;100.00;102413.03;1811189;79;26236;-65
2021/05/31 01:52:05;;;;;;;37.60;25.97;;;;;;;10.40;100.00;102409.08;1751265;81;26266;-65
2021/05/31 01:54:36;;;;;;;34.93;24.97;;;;;;;10.50;100.00;102408.75;1751295;82;26289;-70
2021/05/31 01:57:08;;;;;;;36.90;25.33;;;;;;;10.42;100.00;102418.88;1802225;79;26634;-70
2021/05/31 01:59:39;;;;;;;36.30;27.03;;;;;;;10.35;100.00;102407.61;1812268;79;26247;-70
2021/05/31 02:02:12;;;;;;;37.50;25.63;;;;;;;10.36;100.00;102405.10;1811163;79;26287;-70
2021/05/31 02:04:42;;;;;;;39.33;27.53;;;;;;;10.46;100.00;102406.17;1811295;79;26259;-70
2021/05/31 02:07:12;;;;;;;36.13;26.40;;;;;;;10.45;100.00;102399.47;1811161;79;26354;-70
2021/05/31 02:09:45;;;;;;;37.40;25.80;;;;;;;10.56;100.00;102400.53;1811221;78;26239;-69
2021/05/31 02:12:17;;;;;;;40.80;25.93;;;;;;;10.58;100.00;102401.95;1811352;79;26309;-70
2021/05/31 02:14:49;;;;;;;36.40;25.83;;;;;;;10.37;100.00;102398.47;1751282;81;26270;-70
2021/05/31 02:17:23;;;;;;;38.60;26.63;;;;;;;10.41;100.00;102399.66;1801363;79;26238;-70
2021/05/31 02:19:57;;;;;;;36.60;26.27;;;;;;;10.48;100.00;102390.66;1822796;77;26278;-70
2021/05/31 02:22:28;;;;;;;39.67;26.17;;;;;;;10.43;100.00;102396.11;1819608;79;26240;-70
2021/05/31 02:24:58;;;;;;;41.17;27.60;;;;;;;10.49;100.00;102400.66;1811209;79;26461;-65
2021/05/31 02:27:30;;;;;;;41.53;25.57;;;;;;;10.40;100.00;102396.03;1811288;79;26292;-65
2021/05/31 02:30:01;;;;;;;37.50;26.00;;;;;;;10.33;100.00;102393.11;1811151;79;26297;-69
2021/05/31 02:32:31;;;;;;;35.97;24.87;;;;;;;10.29;100.00;102396.08;1811335;79;26384;-66
2021/05/31 02:35:01;;;;;;;37.70;26.10;;;;;;;10.34;100.00;102394.80;1811254;79;26250;-71
2021/05/31 02:37:35;;;;;;;39.40;26.10;;;;;;;10.41;100.00;102396.34;1811259;79;26261;-70
2021/05/31 02:40:07;;;;;;;35.50;25.23;;;;;;;10.38;100.00;102391.83;1811188;79;26546;-65
2021/05/31 02:42:40;;;;;;;40.90;27.07;;;;;;;10.27;100.00;102392.72;1811204;79;26655;-65
2021/05/31 02:45:12;;;;;;;37.83;25.67;;;;;;;10.35;100.00;102390.94;1811327;79;26312;-69
2021/05/31 02:47:43;;;;;;;37.10;25.87;;;;;;;10.20;100.00;102380.88;1811186;79;26675;-69
2021/05/31 02:50:14;;;;;;;36.50;25.60;;;;;;;10.16;100.00;102379.69;1811154;79;26341;-70
2021/05/31 02:52:44;;;;;;;36.27;25.43;;;;;;;10.17;100.00;102377.22;1811191;79;26786;-69
2021/05/31 02:55:17;;;;;;;38.90;26.70;;;;;;;10.16;100.00;102376.91;1811240;79;26779;-65
2021/05/31 02:57:48;;;;;;;38.43;26.17;;;;;;;10.18;100.00;102374.20;1811183;79;26291;-64
2021/05/31 03:00:20;;;;;;;38.33;25.57;;;;;;;10.20;100.00;102374.78;1811183;79;26274;-70
2021/05/31 03:02:51;;;;;;;40.20;26.80;;;;;;;10.19;100.00;102375.87;1811202;79;26302;-70
2021/05/31 03:05:25;;;;;;;37.97;26.20;;;;;;;10.16;100.00;102377.76;1811187;79;26268;-65
2021/05/31 03:07:56;;;;;;;39.93;25.67;;;;;;;10.24;100.00;102373.20;1811135;79;26247;-70
2021/05/31 03:10:27;;;;;;;36.80;24.93;;;;;;;10.18;100.00;102374.75;1811205;76;26317;-70
2021/05/31 03:12:57;;;;;;;38.60;26.70;;;;;;;10.15;100.00;102363.56;1811168;79;26358;-70
2021/05/31 03:15:27;;;;;;;36.77;25.90;;;;;;;10.24;100.00;102361.25;1811197;79;26390;-70
2021/05/31 03:17:58;;;;;;;40.00;26.30;;;;;;;10.26;100.00;102359.93;1811252;78;26321;-69
2021/05/31 03:20:30;;;;;;;35.23;25.90;;;;;;;10.25;100.00;102353.22;1811168;79;26255;-71
2021/05/31 03:23:01;;;;;;;35.73;26.27;;;;;;;10.31;100.00;102352.25;1811145;79;26337;-65
2021/05/31 03:25:31;;;;;;;39.97;26.50;;;;;;;10.43;100.00;102355.28;1811241;79;26211;-65
2021/05/31 03:28:01;;;;;;;37.87;25.93;;;;;;;10.36;100.00;102352.33;1811276;79;26243;-70
2021/05/31 03:30:31;;;;;;;37.23;25.83;;;;;;;10.36;100.00;102350.94;1811181;79;26745;-64
2021/05/31 03:33:02;;;;;;;41.67;27.23;;;;;;;10.43;100.00;102351.66;1811215;79;26284;-69
2021/05/31 03:35:31;;;;;;;37.93;26.07;;;;;;;10.60;100.00;102347.53;1811156;79;26741;-70
2021/05/31 03:38:02;;;;;;;43.10;27.43;;;;;;;10.61;100.00;102343.67;1811273;79;26321;-70
2021/05/31 03:40:32;;;;;;;35.90;25.77;;;;;;;10.76;100.00;102346.17;1811168;79;26227;-65
2021/05/31 03:43:02;;;;;;;36.80;25.60;;;;;;;10.74;100.00;102349.73;1811241;79;26336;-70
2021/05/31 03:45:32;;;;;;;39.53;25.53;;;;;;;10.70;100.00;102347.16;1811251;79;26761;-72
2021/05/31 03:48:02;;;;;;;38.67;26.70;;;;;;;10.80;100.00;102344.58;1811268;79;26247;-65
2021/05/31 03:50:32;;;;;;;37.07;25.93;;;;;;;10.83;100.00;102346.84;1811162;79;26287;-65
2021/05/31 03:53:19;;;;;;;38.90;25.67;;;;;;;10.84;100.00;102341.59;1821227;79;33371;-65
2021/05/31 03:55:49;;;;;;;35.77;25.13;;;;;;;10.90;100.00;102341.14;1812495;79;26259;-65
2021/05/31 03:58:19;;;;;;;39.90;25.87;;;;;;;10.94;100.00;102342.33;1810446;79;26682;-64
2021/05/31 04:00:49;;;;;;;35.00;24.60;;;;;;;11.10;100.00;102344.81;1798571;77;938973;-65
2021/05/31 04:03:19;;;;;;;38.80;24.70;;;;;;;11.17;100.00;102341.30;1810490;79;26757;-70
2021/05/31 04:06:01;;;;;;;36.03;24.00;;;;;;;11.25;100.00;102349.25;1810406;79;26390;-70
2021/05/31 04:14:03;;;;;;;36.03;23.20;;;;;;;11.47;100.00;102339.01;1821331;79;26267;-71
2021/05/31 04:16:33;;;;;;;34.50;24.47;;;;;;;11.55;100.00;102346.11;1821376;79;26232;-71
2021/05/31 04:19:03;;;;;;;39.13;25.57;;;;;;;11.68;100.00;102344.36;1816805;77;26276;-71
2021/05/31 04:21:34;;;;;;;35.97;25.43;;;;;;;11.62;100.00;102342.04;1810147;79;26783;-66
2021/05/31 04:24:05;;;;;;;38.93;24.57;;;;;;;11.68;100.00;102349.34;1811194;79;26224;-71
2021/05/31 04:26:36;;;;;;;38.60;24.50;;;;;;;11.74;100.00;102346.13;1814178;79;26708;-66
2021/05/31 04:29:08;;;;;;;39.70;25.97;;;;;;;11.74;100.00;102341.41;1814277;79;26372;-66
2021/05/31 04:31:39;;;;;;;36.60;24.67;;;;;;;11.79;100.00;102343.42;1813768;79;26243;-66
2021/05/31 04:34:11;;;;;;;38.10;23.90;;;;;;;11.81;100.00;102339.27;1811236;79;26808;-71
2021/05/31 04:36:43;;;;;;;35.60;23.97;;;;;;;11.79;100.00;102345.66;1811194;79;26781;-71
2021/05/31 04:39:13;;;;;;;40.73;25.53;;;;;;;11.86;100.00;102339.89;1811206;79;26718;-66
2021/05/31 04:41:43;;;;;;;35.77;23.37;;;;;;;11.82;100.00;102333.16;1811257;79;26319;-66
2021/05/31 04:44:13;;;;;;;37.53;24.97;;;;;;;11.89;100.00;102332.44;1811321;79;26711;-66
2021/05/31 04:46:43;;;;;;;40.10;23.60;;;;;;;11.89;100.00;102326.02;1811320;79;26277;-67
2021/05/31 04:49:13;;;;;;;36.00;24.97;;;;;;;11.85;100.00;102328.48;1811245;79;26714;-66
2021/05/31 04:51:43;;;;;;;37.93;24.77;;;;;;;11.85;100.00;102322.34;1811272;79;26259;-71
2021/05/31 04:54:13;;;;;;;40.17;24.30;;;;;;;11.85;100.00;102323.73;1811309;79;26690;-66
2021/05/31 04:56:43;;;;;;;39.20;23.83;;;;;;;11.86;100.00;102326.81;1811470;79;26309;-67
2021/05/31 04:59:14;;;;;;;33.93;22.30;;;;;;;11.90;100.00;102331.86;1811228;79;26227;-66
2021/05/31 05:01:44;;;;;;;36.00;24.10;;;;;;;11.90;100.00;102327.14;1811205;79;26726;-70
2021/05/31 05:04:14;;;;;;;37.30;23.63;;;;;;;11.91;100.00;102326.05;1811239;79;26250;-66
2021/05/31 05:06:44;;;;;;;35.60;23.63;;;;;;;11.86;100.00;102328.75;1811242;79;26305;-66
2021/05/31 05:09:14;;;;;;;35.27;23.27;;;;;;;11.89;100.00;102320.45;1811179;79;26674;-66
2021/05/31 05:11:44;;;;;;;33.60;21.43;;;;;;;11.92;100.00;102327.73;1811212;76;26429;-66
2021/05/31 05:14:13;;;;;;;29.13;20.47;;;;;;;11.95;100.00;102328.60;1811373;79;26219;-71
2021/05/31 05:16:43;;;;;;;29.90;21.03;;;;;;;11.98;100.00;102327.27;1811326;79;26724;-71
2021/05/31 05:19:13;;;;;;;31.37;19.83;;;;;;;11.96;100.00;102328.05;1811274;78;26333;-66
2021/05/31 05:21:43;;;;;;;30.70;20.27;;;;;;;11.97;100.00;102319.45;1811295;79;26730;-66
2021/05/31 05:24:13;;;;;;;33.53;20.10;;;;;;;12.04;100.00;102317.30;1811168;79;26254;-70
2021/05/31 05:26:42;;;;;;;31.13;20.43;;;;;;;12.14;100.00;102318.84;1811307;79;26324;-71
2021/05/31 05:29:12;;;;;;;29.67;21.00;;;;;;;12.07;100.00;102322.89;1811292;79;26255;-65
2021/05/31 05:31:42;;;;;;;29.43;19.07;;;;;;;12.12;100.00;102317.39;1811163;79;26258;-71
2021/05/31 05:34:12;;;;;;;31.77;20.53;;;;;;;12.13;100.00;102319.08;1811332;79;26317;-65
2021/05/31 05:36:49;;;;;;;29.87;19.47;;;;;;;12.19;100.00;102321.66;1811268;79;26254;-71
2021/05/31 05:39:30;;;;;;;29.77;18.33;;;;;;;12.22;100.00;102322.55;1810792;79;26340;-71
2021/05/31 05:42:12;;;;;;;30.47;19.47;;;;;;;12.25;100.00;102326.20;1809989;79;26259;-65
2021/05/31 05:44:55;;;;;;;27.87;18.97;;;;;;;12.16;100.00;102323.58;1735297;82;26261;-71
2021/05/31 05:50:04;;;;;;;30.20;19.83;;;;;;;12.17;100.00;102327.20;1809325;79;26246;-71
2021/05/31 05:52:35;;;;;;;29.57;20.00;;;;;;;12.21;100.00;102329.22;1810405;79;26219;-66
2021/05/31 05:55:08;;;;;;;27.13;20.23;;;;;;;12.31;100.00;102324.33;1811222;79;26258;-71
2021/05/31 05:57:39;;;;;;;29.87;19.93;;;;;;;12.34;100.00;102322.40;1811341;79;26216;-66
2021/05/31 06:00:13;;;;;;;30.10;20.97;;;;;;;12.25;100.00;102323.96;1811212;79;26705;-66
2021/05/31 06:02:43;;;;;;;26.20;19.13;;;;;;;12.17;100.00;102322.48;1811199;79;26211;-71
2021/05/31 06:05:16;;;;;;;31.07;19.80;;;;;;;12.28;100.00;102317.86;1811247;79;26250;-66
2021/05/31 06:07:46;;;;;;;30.27;19.70;;;;;;;12.41;100.00;102316.06;1811230;79;26721;-66
2021/05/31 06:10:18;;;;;;;30.40;19.93;;;;;;;12.45;100.00;102303.86;1811218;79;26252;-66
2021/05/31 06:12:48;;;;;;;31.57;21.13;;;;;;;12.46;100.00;102309.70;1813964;78;26341;-71
2021/05/31 06:15:18;;;;;;;27.70;20.17;;;;;;;12.43;100.00;102311.08;1811216;79;26697;-66
2021/05/31 06:17:48;;;;;;;30.70;20.83;;;;;;;12.54;100.00;102306.44;1811361;79;26243;-66
2021/05/31 06:20:18;;;;;;;28.80;20.00;;;;;;;12.50;100.00;102309.46;1811222;78;26736;-66
2021/05/31 06:22:48;;;;;;;28.23;19.70;;;;;;;12.51;100.00;102313.39;1811310;79;26255;-67
2021/05/31 06:25:20;;;;;;;33.50;22.23;;;;;;;12.67;100.00;102310.20;1811384;79;26658;-66
2021/05/31 06:27:51;;;;;;;31.43;20.37;;;;;;;12.63;100.00;102305.71;1811338;79;26320;-71
2021/05/31 06:30:23;;;;;;;28.77;19.20;;;;;;;12.65;100.00;102302.12;1811290;79;26710;-66
2021/05/31 06:32:53;;;;;;;32.90;20.87;;;;;;;12.68;100.00;102304.37;1811264;79;26709;-66
2021/05/31 06:35:24;;;;;;;30.53;19.90;;;;;;;12.65;100.00;102306.30;1811214;79;26324;-71
2021/05/31 06:37:55;;;;;;;31.47;20.50;;;;;;;12.80;100.00;102306.98;1811255;79;26725;-71
2021/05/31 06:40:26;;;;;;;33.53;20.50;;;;;;;12.77;100.00;102308.91;1811178;79;26214;-71
2021/05/31 06:42:57;;;;;;;31.53;21.33;;;;;;;12.86;100.00;102306.48;1811255;79;26295;-71
2021/05/31 06:45:28;;;;;;;30.70;20.80;;;;;;;12.83;100.00;102308.42;1811228;79;26725;-71
2021/05/31 06:48:01;;;;;;;32.30;21.03;;;;;;;12.81;100.00;102310.62;1811134;79;26215;-71
2021/05/31 06:50:33;;;;;;;30.73;20.50;;;;;;;12.91;100.00;102310.72;1751354;81;26771;-66
2021/05/31 06:53:04;;;;;;;31.23;19.53;;;;;;;13.04;100.00;102304.70;1804894;79;26207;-71
2021/05/31 06:55:35;;;;;;;32.23;21.90;;;;;;;13.10;100.00;102306.41;1811256;79;26247;-66
2021/05/31 06:58:05;;;;;;;29.43;20.13;;;;;;;13.08;100.00;102292.75;1811182;79;26211;-71
2021/05/31 07:00:35;;;;;;;29.80;20.77;;;;;;;13.01;100.00;102299.62;1811239;79;26255;-66
2021/05/31 07:03:07;;;;;;;30.00;20.87;;;;;;;13.17;100.00;102298.70;1811283;79;26376;-71
2021/05/31 07:05:37;;;;;;;30.57;20.87;;;;;;;13.17;100.00;102294.52;1811218;79;26685;-66
2021/05/31 07:08:08;;;;;;;30.57;20.97;;;;;;;13.34;100.00;102300.78;1811185;79;26215;-71
2021/05/31 07:10:39;;;;;;;32.37;20.97;;;;;;;13.41;100.00;102293.55;1811186;79;26764;-66
2021/05/31 07:13:09;;;;;;;31.47;20.40;;;;;;;13.44;100.00;102299.44;1811242;79;26682;-70
2021/05/31 07:15:40;;;;;;;33.27;21.43;;;;;;;13.44;100.00;102298.04;1811089;79;26255;-66
2021/05/31 07:18:13;;;;;;;33.93;21.13;;;;;;;13.34;100.00;102295.75;1811183;78;26654;-66
2021/05/31 07:20:43;;;;;;;34.23;20.93;;;;;;;13.43;100.00;102290.80;1811201;79;26281;-66
2021/05/31 07:23:13;;;;;;;31.57;21.73;;;;;;;13.51;100.00;102286.10;1811148;79;26702;-66
2021/05/31 07:25:42;;;;;;;30.67;19.63;;;;;;;13.59;100.00;102288.93;1814385;79;26262;-70
2021/05/31 07:28:12;;;;;;;29.13;19.90;;;;;;;13.78;100.00;102285.13;1813361;79;26200;-66
2021/05/31 07:30:45;;;;;;;29.40;20.33;;;;;;;13.91;100.00;102291.59;1811410;79;26671;-70
2021/05/31 07:33:17;;;;;;;32.33;20.97;;;;;;;13.80;100.00;102290.72;1811142;79;26721;-66
2021/05/31 07:35:48;;;;;;;31.13;20.73;;;;;;;13.79;100.00;102291.83;1811135;79;26336;-66
2021/05/31 07:38:18;;;;;;;29.13;20.87;;;;;;;13.92;100.00;102282.95;1811155;79;26743;-66
2021/05/31 07:40:48;;;;;;;30.57;21.03;;;;;;;14.03;100.00;102284.66;1811093;79;26761;-66
2021/05/31 07:43:18;;;;;;;27.70;20.50;;;;;;;14.09;100.00;102282.73;1811219;79;26717;-65
2021/05/31 07:45:49;;;;;;;32.00;21.57;;;;;;;14.10;100.00;102284.42;1811089;79;26313;-66
2021/05/31 07:48:19;;;;;;;27.60;19.90;;;;;;;14.34;100.00;102284.20;1811134;79;26318;-71
2021/05/31 07:50:50;;;;;;;33.70;21.57;;;;;;;14.42;100.00;102283.70;1811148;79;26698;-71
2021/05/31 07:53:21;;;;;;;31.87;20.87;;;;;;;14.28;100.00;102285.88;1811403;79;26309;-71
2021/05/31 07:55:51;;;;;;;29.60;21.10;;;;;;;14.49;100.00;102285.69;1811209;79;26360;-71
2021/05/31 07:58:21;;;;;;;30.97;20.90;;;;;;;14.43;100.00;102278.95;1811234;79;26337;-71
2021/05/31 08:00:51;;;;;;;29.97;21.07;;;;;;;14.61;100.00;102278.98;1811222;79;26373;-66
2021/05/31 08:03:21;;;;;;;31.67;20.80;;;;;;;14.64;100.00;102279.81;1811212;79;26803;-71
2021/05/31 08:05:50;;;;;;;31.87;21.07;;;;;;;14.52;100.00;102280.09;1811261;79;26384;-71
2021/05/31 08:08:20;;;;;;;32.97;21.10;;;;;;;14.54;100.00;102273.67;1811128;79;26780;-67
2021/05/31 08:10:50;;;;;;;33.20;20.93;;;;;;;14.74;100.00;102277.89;1811182;79;26291;-66
2021/05/31 08:13:20;;;;;;;28.30;21.33;;;;;;;14.77;100.00;102273.13;1811175;79;26579;-67
2021/05/31 08:15:51;;;;;;;29.83;21.40;;;;;;;14.88;100.00;102271.19;1811058;76;26404;-73
2021/05/31 08:18:22;;;;;;;30.17;20.97;;;;;;;14.87;100.00;102270.34;1811085;78;26386;-66
2021/05/31 08:20:51;;;;;;;34.40;21.77;;;;;;;15.02;100.00;102273.13;1811205;79;26258;-67
2021/05/31 08:23:21;;;;;;;28.47;20.70;;;;;;;15.22;100.00;102271.44;1811313;79;26340;-66
2021/05/31 08:25:52;;;;;;;29.27;20.50;;;;;;;15.43;100.00;102266.09;1811174;79;26255;-73
2021/05/31 08:28:22;;;;;;;31.33;20.13;;;;;;;15.31;100.00;102264.16;1811134;79;26330;-73
2021/05/31 08:30:52;;;;;;;29.60;19.97;;;;;;;15.62;100.00;102263.53;1811165;79;26293;-66
2021/05/31 08:33:21;;;;;;;28.63;19.50;;;;;;;15.96;100.00;102257.52;1811117;79;26689;-72
2021/05/31 08:35:51;;;;;;;32.87;21.00;;;;;;;16.24;100.00;102261.03;1811159;79;26755;-72
2021/05/31 08:38:21;;;;;;;29.37;21.43;;;;;;;15.91;100.00;102255.61;1811116;79;26305;-72
2021/05/31 08:40:51;;;;;;;28.90;20.53;;;;;;;16.30;100.00;102244.44;1811255;79;26298;-72
2021/05/31 08:43:21;;;;;;;27.10;19.17;;;;;;;16.45;100.00;102247.72;1811182;79;26334;-72
2021/05/31 08:45:51;;;;;;;29.50;20.50;;;;;;;16.83;100.00;102244.66;1811256;79;26241;-71
2021/05/31 08:48:24;;;;;;;25.87;19.87;;;;;;;16.85;100.00;102239.59;1811460;79;26706;-66
2021/05/31 08:50:54;;;;;;;26.03;20.20;;;;;;;16.60;100.00;102245.42;1811129;79;26262;-72
2021/05/31 08:53:25;;;;;;;25.20;19.17;;;;;;;16.70;100.00;102240.55;1811062;79;26323;-72
2021/05/31 08:55:55;;;;;;;27.70;19.23;;;;;;;16.82;100.00;102239.60;1811366;79;26349;-67
2021/05/31 08:58:25;;;;;;;27.57;19.87;;;;;;;16.92;100.00;102235.03;1811140;79;26252;-67
2021/05/31 09:00:55;;;;;;;26.27;19.80;;;;;;;16.63;100.00;102238.66;1811111;79;26257;-66
2021/05/31 09:03:24;;;;;;;27.30;19.60;;;;;;;16.54;100.00;102237.56;1811306;79;26225;-67
2021/05/31 09:05:59;;;;;;;26.30;19.47;;;;;;;16.98;100.00;102232.47;1811224;79;26299;-73
2021/05/31 09:08:31;;;;;;;26.13;18.70;;;;;;;17.14;100.00;102227.81;1811203;79;26260;-67
2021/05/31 09:11:06;;;;;;;30.30;19.30;;;;;;;17.21;100.00;102217.63;1735822;82;26701;-67
2021/05/31 09:13:39;;;;;;;25.93;19.17;;;;;;;17.29;100.00;102220.63;1809242;79;26213;-67
2021/05/31 09:16:13;;;;;;;27.27;19.87;;;;;;;17.16;100.00;102217.11;1809612;77;26335;-73
2021/05/31 09:18:48;;;;;;;22.60;17.70;;;;;;;17.25;100.00;102208.88;1811236;78;26769;-73
2021/05/31 09:21:21;;;;;;;30.27;19.73;;;;;;;17.36;100.00;102211.86;1811388;79;24195;-67
2021/05/31 09:23:54;;;;;;;29.33;20.03;;;;;;;17.19;100.00;102208.11;1811247;79;26266;-66
2021/05/31 09:26:24;;;;;;;31.00;19.77;;;;;;;17.35;100.00;102200.91;1811334;79;26302;-72
2021/05/31 09:28:55;;;;;;;29.97;19.87;;;;;;;17.46;100.00;102201.05;1811248;79;26717;-72
2021/05/31 09:31:27;;;;;;;26.53;20.30;;;;;;;17.79;100.00;102201.53;1811346;79;26221;-73
2021/05/31 09:34:02;;;;;;;28.40;19.67;;;;;;;17.79;100.00;102203.51;1811174;79;26787;-67
2021/05/31 09:36:34;;;;;;;27.50;19.77;;;;;;;17.78;100.00;102202.67;1811309;79;26257;-72
2021/05/31 09:39:05;;;;;;;26.13;19.10;;;;;;;17.78;100.00;102202.67;1811241;79;26217;-74
2021/05/31 09:41:36;;;;;;;27.60;20.20;;;;;;;17.91;100.00;102208.12;1811223;79;26299;-67
2021/05/31 09:44:07;;;;;;;27.10;18.27;;;;;;;17.82;100.00;102198.11;1811216;79;26225;-66
2021/05/31 09:46:40;;;;;;;29.00;20.17;;;;;;;17.97;100.00;102195.67;1811238;79;26360;-73
2021/05/31 09:49:14;;;;;;;26.53;19.60;;;;;;;17.83;100.00;102192.77;1811192;79;26301;-73
2021/05/31 09:51:57;;;;;;;25.83;18.70;;;;;;;17.83;100.00;102192.77;1811214;79;24157;-67
2021/05/31 09:54:35;;;;;;;25.73;19.33;;;;;;;18.15;100.00;102187.23;1811143;79;24627;-72
2021/05/31 09:57:19;;;;;;;29.90;21.27;;;;;;;18.15;100.00;102187.23;1811327;79;24196;-66
2021/05/31 09:59:52;;;;;;;28.37;19.87;;;;;;;18.04;100.00;102175.04;1811308;79;24157;-67
2021/05/31 10:02:35;;;;;;;28.33;19.97;;;;;;;18.04;100.00;102175.04;1811289;79;24164;-66
2021/05/31 10:05:10;;;;;;;27.17;19.73;;;;;;;17.97;100.00;102182.42;1810327;79;24265;-73
2021/05/31 10:07:44;;;;;;;27.30;20.40;;;;;;;18.23;100.00;102178.67;1810976;79;24153;-71
2021/05/31 10:10:13;;;;;;;25.40;19.67;;;;;;;18.46;100.00;102169.88;1810835;79;24140;-66
2021/05/31 10:12:44;;;;;;;28.47;19.63;;;;;;;18.20;100.00;102168.88;1811233;79;24160;-66
2021/05/31 10:15:16;;;;;;;27.90;20.20;;;;;;;18.35;100.00;102182.45;1811276;79;24682;-70
2021/05/31 10:17:48;;;;;;;29.23;19.63;;;;;;;18.37;100.00;102178.18;1751477;79;26292;-72
2021/05/31 10:20:20;;;;;;;24.27;17.10;;;;;;;18.46;100.00;102179.73;1798374;79;24200;-66
2021/05/31 10:22:50;;;;;;;28.17;20.20;;;;;;;18.46;100.00;102182.55;1811219;79;24188;-72
2021/05/31 10:25:21;;;;;;;24.30;17.83;;;;;;;18.57;100.00;102178.44;1811330;79;24156;-73
2021/05/31 10:27:54;;;;;;;20.10;15.60;;;;;;;18.61;100.00;102178.13;1811239;79;26779;-72
2021/05/31 10:30:24;;;;;;;29.90;20.83;;;;;;;18.71;100.00;102170.05;1811303;79;24188;-66
2021/05/31 10:32:56;;;;;;;27.33;20.13;;;;;;;18.57;100.00;102172.24;1811189;79;26242;-73
2021/05/31 10:35:28;;;;;;;22.17;16.23;;;;;;;18.57;100.00;102170.84;1811325;79;26720;-72
2021/05/31 10:37:59;;;;;;;25.37;18.50;;;;;;;18.87;100.00;102164.44;1811315;79;24227;-73
2021/05/31 10:40:34;;;;;;;24.13;18.47;;;;;;;18.79;100.00;102161.73;1811324;79;24165;-65
2021/05/31 10:43:09;;;;;;;25.03;18.23;;;;;;;19.03;100.00;102158.21;1811451;79;24246;-73
2021/05/31 10:45:41;;;;;;;23.43;16.77;;;;;;;19.00;100.00;102163.03;1811192;79;26658;-65
2021/05/31 10:48:15;;;;;;;20.47;17.63;;;;;;;19.06;100.00;102163.78;1811215;79;26222;-66
2021/05/31 10:50:47;;;;;;;21.73;16.40;;;;;;;19.01;100.00;102156.27;1751575;81;26656;-65
2021/05/31 10:53:30;;;;;;;25.10;16.57;;;;;;;19.24;100.00;102162.03;1793007;79;24189;-73
2021/05/31 10:56:02;;;;;;;21.17;16.17;;;;;;;19.39;100.00;102152.69;1811273;79;24243;-72
2021/05/31 10:58:35;;;;;;;24.23;14.60;;;;;;;19.34;100.00;102157.02;1811311;79;24169;-71
2021/05/31 11:01:08;;;;;;;21.97;16.57;;;;;;;19.39;100.00;102149.87;1811251;79;24679;-66
2021/05/31 11:03:50;;;;;;;22.00;15.00;;;;;;;19.36;100.00;102149.09;1811208;79;24667;-73
2021/05/31 11:06:23;;;;;;;20.60;15.03;;;;;;;19.36;100.00;102143.46;1811400;79;24165;-66
2021/05/31 11:08:54;;;;;;;21.30;16.43;;;;;;;19.42;100.00;102144.20;1811253;79;26775;-73
2021/05/31 11:11:30;;;;;;;20.87;15.57;;;;;;;19.45;100.00;102143.02;1811223;79;24255;-72
2021/05/31 11:14:01;;;;;;;21.63;16.50;;;;;;;19.39;100.00;102141.41;1811211;79;24194;-65
2021/05/31 11:16:35;;;;;;;21.13;16.23;;;;;;;19.40;100.00;102139.44;1811225;78;24228;-73
2021/05/31 11:19:07;;;;;;;20.43;15.40;;;;;;;19.44;100.00;102132.89;1811301;78;24204;-66
2021/05/31 11:21:40;;;;;;;18.30;13.87;;;;;;;19.52;100.00;102127.92;1811223;79;26331;-66
2021/05/31 11:24:13;;;;;;;16.57;13.30;;;;;;;19.57;100.00;102128.96;1811206;79;24160;-73
2021/05/31 11:26:46;;;;;;;16.73;13.60;;;;;;;19.64;100.00;102123.75;1751298;81;24204;-73
2021/05/31 11:29:17;;;;;;;15.93;13.40;;;;;;;19.67;100.00;102119.72;1751410;82;24165;-73